Time;durP1;ratioP1;P1;durP2;ratioP2;P2;SDS_P1;SDS_P2;PMS_P1;PMS_P2;Temp;Humidity;BMP_temperature;BMP_pressure;BME280_temperature;BME280_humidity;BME280_pressure;Samples;Min_cycle;Max_cycle;Signal;HPM_P1;HPM_P2
2022/08/31 00:05:22;;;;;;;14.57;9.70;;;;;;;18.68;73.77;96338.06;5117224;28;20109;-60
2022/08/31 00:07:50;;;;;;;13.82;10.13;;;;;;;18.60;73.73;96336.94;5117036;28;20102;-59
2022/08/31 00:10:18;;;;;;;14.77;10.10;;;;;;;18.61;73.89;96342.13;5116914;28;20473;-58
2022/08/31 00:12:49;;;;;;;17.67;10.43;;;;;;;18.56;73.81;96344.25;5116880;28;20043;-59
2022/08/31 00:15:17;;;;;;;;;;;;;;;18.58;73.84;96339.69;5117389;28;20078;-58
2022/08/31 00:17:45;;;;;;;16.50;10.55;;;;;;;18.53;74.12;96333.88;5116859;28;19919;-58
2022/08/31 00:20:14;;;;;;;13.65;9.95;;;;;;;18.60;73.86;96339.59;5116721;27;20481;-60
2022/08/31 00:22:42;;;;;;;14.05;10.27;;;;;;;18.61;73.72;96342.13;5116561;28;20131;-59
2022/08/31 00:25:10;;;;;;;16.77;10.70;;;;;;;18.64;74.07;96339.25;5116607;28;20082;-58
2022/08/31 00:27:37;;;;;;;13.73;10.02;;;;;;;18.65;73.87;96337.44;5116591;28;20044;-58
2022/08/31 00:30:07;;;;;;;16.05;10.77;;;;;;;18.60;74.00;96337.75;5116509;28;20066;-59
2022/08/31 00:32:35;;;;;;;14.20;9.88;;;;;;;18.60;73.43;96342.22;5116609;28;20097;-60
2022/08/31 00:35:02;;;;;;;19.55;10.55;;;;;;;18.59;74.12;96333.44;5116364;28;20442;-59
2022/08/31 00:37:29;;;;;;;14.15;9.98;;;;;;;18.58;74.14;96328.25;5116441;28;20040;-59
2022/08/31 00:39:56;;;;;;;11.38;9.95;;;;;;;18.63;73.98;96334.06;5116437;28;20079;-61
2022/08/31 00:42:23;;;;;;;12.93;9.80;;;;;;;18.66;73.72;96334.66;5116203;28;20040;-61
2022/08/31 00:44:51;;;;;;;14.45;9.95;;;;;;;18.69;73.49;96334.44;5115770;28;20052;-60
2022/08/31 00:47:19;;;;;;;17.10;10.18;;;;;;;18.73;73.39;96326.25;5116209;28;20086;-58
2022/08/31 00:49:50;;;;;;;20.63;10.45;;;;;;;18.60;73.65;96329.81;5116148;28;20179;-59
2022/08/31 00:52:21;;;;;;;13.15;10.18;;;;;;;18.54;73.67;96333.78;5116196;28;20047;-60
2022/08/31 00:54:54;;;;;;;13.85;10.52;;;;;;;18.58;74.06;96325.59;5115957;28;20059;-59
2022/08/31 00:57:23;;;;;;;16.40;10.50;;;;;;;18.59;74.56;96322.84;5116060;28;20540;-61
2022/08/31 00:59:51;;;;;;;11.43;9.90;;;;;;;18.61;74.40;96328.03;5115978;28;20048;-60
2022/08/31 01:02:20;;;;;;;14.93;10.40;;;;;;;18.60;73.98;96324.53;5115914;28;20404;-59
2022/08/31 01:04:47;;;;;;;15.43;10.68;;;;;;;18.55;74.18;96321.38;5115793;28;20122;-58
2022/08/31 01:07:14;;;;;;;16.55;10.65;;;;;;;18.52;74.25;96317.16;5115884;28;20456;-58
2022/08/31 01:09:44;;;;;;;11.52;10.07;;;;;;;18.53;74.30;96320.63;5115714;28;20067;-59
2022/08/31 01:12:12;;;;;;;11.77;9.77;;;;;;;18.55;74.29;96308.13;5115767;28;20096;-58
2022/08/31 01:14:41;;;;;;;14.18;9.93;;;;;;;18.53;74.12;96308.25;5115709;28;20083;-58
2022/08/31 01:17:09;;;;;;;16.08;10.02;;;;;;;18.51;74.16;96317.28;5115647;28;20047;-59
2022/08/31 01:19:42;;;;;;;18.23;11.00;;;;;;;18.44;74.08;96308.94;5115537;28;20068;-58
2022/08/31 01:22:16;;;;;;;15.98;10.00;;;;;;;18.53;74.27;96302.97;5115294;27;20056;-59
2022/08/31 01:24:47;;;;;;;13.13;10.98;;;;;;;18.48;74.33;96302.44;5115407;27;20492;-58
2022/08/31 01:27:17;;;;;;;18.20;11.63;;;;;;;18.44;74.54;96304.50;5115416;28;20044;-58
2022/08/31 01:29:44;;;;;;;17.15;10.65;;;;;;;18.43;74.23;96309.91;5115286;28;20052;-60
2022/08/31 01:32:11;;;;;;;15.23;11.07;;;;;;;18.43;74.52;96316.00;5115380;28;20505;-60
2022/08/31 01:34:41;;;;;;;19.92;10.88;;;;;;;18.39;74.91;96311.91;5115194;28;20052;-60
2022/08/31 01:37:09;;;;;;;21.88;11.07;;;;;;;18.44;74.55;96314.22;5115447;28;20051;-59
2022/08/31 01:39:36;;;;;;;17.48;10.57;;;;;;;18.46;74.76;96314.97;5115122;28;20134;-60
2022/08/31 01:42:05;;;;;;;15.98;10.73;;;;;;;18.46;74.04;96309.66;5115193;28;20054;-60
2022/08/31 01:44:32;;;;;;;16.80;9.95;;;;;;;18.42;74.01;96311.69;5115249;28;20079;-61
2022/08/31 01:46:59;;;;;;;16.17;10.93;;;;;;;18.42;74.05;96310.81;5115035;28;20075;-61
2022/08/31 01:49:27;;;;;;;20.75;11.13;;;;;;;18.40;74.17;96312.75;5115089;28;20390;-58
2022/08/31 01:51:55;;;;;;;14.73;10.38;;;;;;;18.36;73.95;96309.47;5115018;28;20047;-61
2022/08/31 01:54:24;;;;;;;11.73;10.32;;;;;;;18.40;74.20;96308.31;5114521;28;20043;-58
2022/08/31 01:56:51;;;;;;;20.08;11.98;;;;;;;18.43;74.02;96309.91;5114177;28;20503;-59
2022/08/31 01:59:22;;;;;;;14.55;10.63;;;;;;;18.40;73.47;96310.13;5114644;28;20051;-61
2022/08/31 02:01:51;;;;;;;14.52;10.98;;;;;;;18.31;73.54;96315.13;5114666;28;20047;-59
2022/08/31 02:04:21;;;;;;;15.25;11.00;;;;;;;18.38;73.85;96314.66;5114713;28;20566;-60
2022/08/31 02:06:51;;;;;;;11.70;10.18;;;;;;;18.35;73.96;96312.25;5114647;28;20092;-61
2022/08/31 02:09:19;;;;;;;18.40;9.93;;;;;;;18.27;73.92;96320.78;5114591;28;20070;-59
2022/08/31 02:11:46;;;;;;;12.60;10.13;;;;;;;18.30;74.02;96308.13;5114472;28;20073;-58
2022/08/31 02:14:14;;;;;;;14.93;10.00;;;;;;;18.32;74.09;96313.31;5114474;28;20048;-60
2022/08/31 02:16:43;;;;;;;13.43;10.32;;;;;;;18.31;73.76;96314.28;5114455;28;20440;-61
2022/08/31 02:19:10;;;;;;;14.02;10.18;;;;;;;18.32;73.58;96313.31;5114410;28;20478;-58
2022/08/31 02:21:38;;;;;;;13.68;10.15;;;;;;;18.38;73.86;96320.81;5114086;28;20451;-60
2022/08/31 02:24:06;;;;;;;17.60;10.50;;;;;;;18.40;73.70;96315.41;5114275;28;20048;-60
2022/08/31 02:26:33;;;;;;;15.77;10.88;;;;;;;18.38;73.76;96310.22;5114205;28;20139;-58
2022/08/31 02:29:01;;;;;;;22.35;12.00;;;;;;;18.40;74.08;96310.97;5114362;28;20078;-61
2022/08/31 02:31:28;;;;;;;21.42;10.73;;;;;;;18.38;73.70;96312.03;5114228;28;20058;-59
2022/08/31 02:33:56;;;;;;;14.82;10.85;;;;;;;18.43;73.72;96315.19;5114254;28;20092;-58
2022/08/31 02:36:24;;;;;;;15.88;10.70;;;;;;;18.47;74.05;96316.66;5114017;28;20105;-61
2022/08/31 02:38:51;;;;;;;12.65;10.23;;;;;;;18.49;73.98;96320.03;5114080;28;20091;-59
2022/08/31 02:41:18;;;;;;;10.85;9.68;;;;;;;18.56;73.52;96317.78;5113958;28;20063;-58
2022/08/31 02:43:45;;;;;;;20.20;10.80;;;;;;;18.60;73.75;96311.28;5114019;28;20087;-59
2022/08/31 02:46:12;;;;;;;11.32;10.02;;;;;;;18.51;72.99;96320.75;5114072;28;20047;-58
2022/08/31 02:48:40;;;;;;;17.25;10.48;;;;;;;18.39;73.01;96322.50;5113870;28;20467;-60
2022/08/31 02:51:10;;;;;;;17.75;10.85;;;;;;;18.49;73.03;96321.84;5113949;28;20048;-60
2022/08/31 02:53:38;;;;;;;13.45;9.85;;;;;;;18.58;73.22;96322.94;5113703;28;20101;-61
2022/08/31 02:56:06;;;;;;;15.80;10.57;;;;;;;18.63;73.39;96328.75;5113874;27;20047;-59
2022/08/31 02:58:34;;;;;;;10.75;9.27;;;;;;;18.59;73.19;96321.97;5113870;28;20040;-58
2022/08/31 03:01:01;;;;;;;14.60;9.57;;;;;;;18.58;73.25;96323.81;5113802;28;20135;-58
2022/08/31 03:03:28;;;;;;;11.18;9.90;;;;;;;18.55;73.09;96316.09;5113641;28;20079;-59
2022/08/31 03:05:55;;;;;;;13.05;10.30;;;;;;;18.56;73.23;96317.78;5113479;28;20069;-59
2022/08/31 03:08:23;;;;;;;15.05;9.88;;;;;;;18.56;73.41;96323.06;5113525;28;20489;-58
2022/08/31 03:10:50;;;;;;;14.48;9.98;;;;;;;18.52;73.10;96316.31;5113631;28;20077;-61
2022/08/31 03:13:18;;;;;;;18.35;10.68;;;;;;;18.54;73.15;96319.66;5113539;28;20086;-59
2022/08/31 03:15:45;;;;;;;15.95;10.32;;;;;;;18.53;72.96;96312.69;5113613;28;20052;-60
2022/08/31 03:18:12;;;;;;;12.02;9.88;;;;;;;18.52;73.16;96313.66;5113527;28;20546;-60
2022/08/31 03:20:39;;;;;;;15.55;10.70;;;;;;;18.50;73.23;96316.44;5113238;28;20134;-58
2022/08/31 03:23:06;;;;;;;13.18;10.60;;;;;;;18.44;73.16;96311.56;5113608;28;20435;-60
2022/08/31 03:25:34;;;;;;;14.65;10.93;;;;;;;18.41;72.86;96315.31;5113587;28;20131;-61
2022/08/31 03:28:02;;;;;;;17.63;11.32;;;;;;;18.31;73.30;96309.81;5113648;28;20116;-61
2022/08/31 03:30:29;;;;;;;24.77;10.70;;;;;;;18.14;73.85;96308.41;5113394;28;20051;-59
2022/08/31 03:32:56;;;;;;;18.45;10.38;;;;;;;18.08;74.19;96318.56;5113414;28;20481;-58
2022/08/31 03:35:23;;;;;;;19.88;11.70;;;;;;;18.07;74.63;96317.72;5113361;28;20050;-58
2022/08/31 03:37:50;;;;;;;14.68;10.98;;;;;;;18.08;74.62;96323.84;5113408;28;20044;-58
2022/08/31 03:40:17;;;;;;;18.20;10.90;;;;;;;18.08;74.67;96324.69;5113388;28;20044;-59
2022/08/31 03:42:46;;;;;;;14.30;10.95;;;;;;;18.09;74.74;96336.16;5113439;28;20043;-60
2022/08/31 03:45:13;;;;;;;13.75;11.02;;;;;;;18.06;74.50;96326.59;5113320;28;20052;-58
2022/08/31 03:47:40;;;;;;;16.42;10.65;;;;;;;18.03;74.37;96340.09;5113270;28;20075;-60
2022/08/31 03:50:10;;;;;;;15.35;10.43;;;;;;;18.05;74.62;96339.00;5113227;28;20044;-58
2022/08/31 03:52:37;;;;;;;17.30;11.15;;;;;;;17.93;74.85;96345.16;5113270;28;20482;-58
2022/08/31 03:55:06;;;;;;;12.90;10.75;;;;;;;17.85;74.89;96344.88;5113046;28;20134;-59
2022/08/31 03:57:34;;;;;;;13.73;10.80;;;;;;;17.70;75.50;96347.63;5113134;28;20087;-58
2022/08/31 04:00:05;;;;;;;16.80;11.35;;;;;;;17.66;76.15;96348.81;5113133;28;20052;-60
2022/08/31 04:02:32;;;;;;;16.35;11.10;;;;;;;17.58;76.32;96346.69;5113170;28;20069;-59
2022/08/31 04:04:59;;;;;;;17.73;11.50;;;;;;;17.61;76.62;96351.75;5113168;28;20048;-61
2022/08/31 04:07:26;;;;;;;19.55;11.50;;;;;;;17.71;76.85;96345.84;5113083;28;20043;-61
2022/08/31 04:09:53;;;;;;;14.07;10.68;;;;;;;17.80;76.52;96345.19;5113030;28;20071;-59
2022/08/31 04:12:21;;;;;;;20.42;11.60;;;;;;;17.91;76.25;96345.28;5113133;28;20039;-60
2022/08/31 04:14:48;;;;;;;14.43;11.07;;;;;;;18.03;76.08;96343.56;5112953;28;20083;-59
2022/08/31 04:17:17;;;;;;;17.50;10.60;;;;;;;18.09;75.61;96344.91;5113052;28;20102;-58
2022/08/31 04:19:44;;;;;;;24.15;10.27;;;;;;;18.11;75.14;96350.97;5115819;28;20052;-59
2022/08/31 04:22:11;;;;;;;18.95;11.13;;;;;;;18.18;75.51;96352.22;5116508;28;20104;-59
2022/08/31 04:24:38;;;;;;;16.27;9.65;;;;;;;18.30;75.05;96355.78;5116757;28;20039;-60
2022/08/31 04:27:05;;;;;;;13.18;10.43;;;;;;;18.51;74.88;96357.00;5116699;28;20043;-60
2022/08/31 04:29:33;;;;;;;15.68;10.55;;;;;;;18.75;75.05;96358.78;5116726;28;20409;-61
2022/08/31 04:32:00;;;;;;;16.33;9.40;;;;;;;19.08;74.06;96348.47;5116491;28;20134;-60
2022/08/31 04:34:28;;;;;;;14.80;9.65;;;;;;;19.43;72.54;96360.81;5116370;28;20446;-60
2022/08/31 04:36:56;;;;;;;17.25;9.45;;;;;;;19.75;71.07;96365.41;5116398;27;20492;-62
2022/08/31 04:39:23;;;;;;;14.52;9.25;;;;;;;20.12;70.04;96363.50;5116374;28;20043;-62
2022/08/31 04:41:50;;;;;;;14.80;8.40;;;;;;;20.52;69.00;96359.44;5116266;28;20047;-62
2022/08/31 04:44:18;;;;;;;14.75;8.70;;;;;;;20.96;67.25;96351.47;5116334;28;20073;-61
2022/08/31 04:46:45;;;;;;;14.82;7.18;;;;;;;21.43;66.28;96369.69;5116253;28;20043;-61
2022/08/31 04:49:14;;;;;;;14.20;7.78;;;;;;;21.89;64.64;96360.56;5116163;28;20446;-60
2022/08/31 04:51:42;;;;;;;18.80;7.75;;;;;;;22.30;63.89;96364.06;5116162;28;20059;-62
2022/08/31 04:54:12;;;;;;;15.35;7.30;;;;;;;22.75;62.07;96361.91;5116134;28;20455;-60
2022/08/31 04:56:42;;;;;;;13.77;6.85;;;;;;;23.18;60.64;96356.31;5116094;28;20044;-61
2022/08/31 04:59:15;;;;;;;9.73;6.50;;;;;;;23.64;61.34;96361.00;5116089;28;20101;-62
2022/08/31 05:01:45;;;;;;;9.70;7.00;;;;;;;24.10;59.11;96353.09;5115911;28;20044;-61
2022/08/31 05:04:13;;;;;;;15.07;6.85;;;;;;;24.55;57.24;96347.94;5116024;28;20126;-62
2022/08/31 05:06:45;;;;;;;10.88;6.30;;;;;;;24.85;54.96;96353.94;5115890;28;20073;-60
2022/08/31 05:09:14;;;;;;;14.57;7.22;;;;;;;25.29;55.77;96355.00;5115976;28;20048;-61
2022/08/31 05:11:41;;;;;;;12.38;6.38;;;;;;;25.85;54.59;96358.22;5115698;28;20134;-60
2022/08/31 05:14:10;;;;;;;11.00;5.95;;;;;;;26.25;52.81;96355.88;5115782;28;20051;-60
2022/08/31 05:16:39;;;;;;;11.15;6.13;;;;;;;26.82;53.49;96358.06;5115788;28;20139;-62
2022/08/31 05:19:06;;;;;;;10.15;6.30;;;;;;;27.38;53.54;96357.41;5115815;28;20047;-60
2022/08/31 05:21:35;;;;;;;13.30;5.70;;;;;;;27.94;48.82;96358.50;5115351;28;20068;-60
2022/08/31 05:24:06;;;;;;;11.73;6.20;;;;;;;28.21;47.27;96361.78;5115469;28;20044;-62
2022/08/31 05:26:35;;;;;;;10.80;5.93;;;;;;;28.23;45.84;96363.28;5115387;28;20044;-61
2022/08/31 05:29:06;;;;;;;9.35;5.55;;;;;;;28.61;44.94;96361.78;5115485;28;20465;-59
2022/08/31 05:31:33;;;;;;;8.13;5.80;;;;;;;29.09;43.02;96360.81;5115678;27;20090;-61
2022/08/31 05:34:01;;;;;;;10.85;6.30;;;;;;;29.28;42.72;96359.47;5115246;28;20044;-60
2022/08/31 05:36:28;;;;;;;13.65;6.10;;;;;;;29.43;43.48;96358.69;5115190;28;20051;-61
2022/08/31 05:38:57;;;;;;;12.27;5.80;;;;;;;29.62;43.83;96355.47;5115213;28;20070;-62
2022/08/31 05:41:27;;;;;;;9.82;6.22;;;;;;;29.90;44.46;96356.72;5115074;28;20481;-60
2022/08/31 05:43:54;;;;;;;12.52;6.05;;;;;;;30.12;44.52;96359.47;5115125;28;20066;-61
2022/08/31 05:46:21;;;;;;;7.65;5.68;;;;;;;30.06;42.25;96363.75;5114971;28;20481;-60
2022/08/31 05:48:48;;;;;;;9.75;6.30;;;;;;;29.98;43.31;96353.09;5115295;28;20079;-61
2022/08/31 05:51:17;;;;;;;9.75;6.07;;;;;;;29.85;42.86;96359.09;5114897;28;20044;-59
2022/08/31 05:53:44;;;;;;;12.88;6.85;;;;;;;29.74;42.76;96357.72;5114888;28;20047;-61
2022/08/31 05:56:14;;;;;;;11.25;6.35;;;;;;;29.95;43.45;96356.16;5114762;28;20055;-61
2022/08/31 05:58:44;;;;;;;13.30;6.13;;;;;;;30.34;43.60;96349.63;5114935;28;20046;-61
2022/08/31 06:01:16;;;;;;;9.90;5.97;;;;;;;30.67;42.32;96356.41;5114824;28;20126;-60
2022/08/31 06:03:44;;;;;;;19.13;6.45;;;;;;;30.64;41.88;96356.84;5114735;28;20438;-59
2022/08/31 06:06:12;;;;;;;12.65;6.18;;;;;;;30.20;41.94;96354.03;5114616;28;20040;-61
2022/08/31 06:08:39;;;;;;;14.02;6.20;;;;;;;30.05;43.94;96350.47;5114663;28;20101;-62
2022/08/31 06:11:14;;;;;;;8.63;6.35;;;;;;;30.35;43.72;96355.88;5114632;28;20114;-61
2022/08/31 06:13:44;;;;;;;12.18;6.10;;;;;;;30.79;41.73;96362.19;5114493;28;20442;-62
2022/08/31 06:16:12;;;;;;;;;;;;;;;31.28;41.13;96359.75;5114847;28;20048;-62
2022/08/31 06:18:42;;;;;;;11.45;6.05;;;;;;;31.68;38.93;96353.00;5114467;28;19920;-62
2022/08/31 06:21:11;;;;;;;14.10;6.50;;;;;;;32.00;38.92;96356.16;5114158;28;20378;-62
2022/08/31 06:23:41;;;;;;;12.10;5.57;;;;;;;31.96;38.23;96357.59;5114354;28;20485;-62
2022/08/31 06:26:11;;;;;;;7.70;6.13;;;;;;;31.70;38.42;96359.06;5114482;28;20050;-62
2022/08/31 06:28:38;;;;;;;;;;;;;;;31.40;39.11;96365.50;5114821;28;20044;-59
2022/08/31 06:31:10;;;;;;;10.00;5.95;;;;;;;31.17;40.76;96361.09;5114357;28;19919;-60
2022/08/31 06:33:38;;;;;;;16.55;6.32;;;;;;;30.95;40.56;96366.53;5114257;28;20052;-59
2022/08/31 06:36:10;;;;;;;11.68;6.47;;;;;;;30.76;41.36;96368.00;5113956;28;20086;-60
2022/08/31 06:38:37;;;;;;;15.20;6.10;;;;;;;30.94;38.71;96372.13;5114043;28;20040;-61
2022/08/31 06:41:11;;;;;;;10.10;5.88;;;;;;;31.13;38.35;96365.22;5113678;28;20047;-59
2022/08/31 06:43:38;;;;;;;9.50;5.88;;;;;;;31.40;38.54;96357.38;5114168;28;20431;-59
2022/08/31 06:46:07;;;;;;;9.93;6.70;;;;;;;31.21;40.78;96356.97;5114000;28;20100;-61
2022/08/31 06:48:35;;;;;;;9.13;5.70;;;;;;;31.26;39.63;96356.41;5113937;28;20040;-59
2022/08/31 06:51:03;;;;;;;14.38;6.20;;;;;;;31.48;39.31;96357.22;5114014;28;20400;-62
2022/08/31 06:53:30;;;;;;;11.93;5.95;;;;;;;31.40;38.30;96362.78;5113961;28;20459;-60
2022/08/31 06:55:57;;;;;;;8.00;6.07;;;;;;;31.64;39.91;96357.97;5113909;28;20489;-61
2022/08/31 06:58:25;;;;;;;10.95;5.80;;;;;;;31.99;37.79;96351.78;5113845;28;20481;-59
2022/08/31 07:00:52;;;;;;;13.70;6.05;;;;;;;32.24;37.84;96356.69;5113682;28;20066;-61
2022/08/31 07:03:31;;;;;;;8.15;5.32;;;;;;;32.50;37.41;96357.84;5113786;28;20070;-60
2022/08/31 07:06:11;;;;;;;11.50;5.53;;;;;;;32.74;36.38;96352.91;5113875;28;20054;-60
2022/08/31 07:08:40;;;;;;;9.90;5.35;;;;;;;32.90;35.69;96354.44;5113781;28;20124;-60
2022/08/31 07:11:12;;;;;;;8.95;5.47;;;;;;;32.85;37.14;96360.44;5113606;28;20472;-62
2022/08/31 07:13:40;;;;;;;12.88;6.30;;;;;;;32.89;36.03;96353.59;5113634;28;20054;-61
2022/08/31 07:16:09;;;;;;;15.02;5.60;;;;;;;32.68;36.33;96353.75;5113684;28;20090;-61
2022/08/31 07:18:38;;;;;;;15.35;5.35;;;;;;;32.86;35.66;96355.84;5113611;28;20066;-62
2022/08/31 07:21:10;;;;;;;13.82;5.57;;;;;;;32.95;34.60;96357.34;5113283;28;20101;-61
2022/08/31 07:23:39;;;;;;;14.23;5.75;;;;;;;33.14;33.77;96352.19;5113654;28;20616;-62
2022/08/31 07:26:07;;;;;;;9.43;5.63;;;;;;;32.98;33.80;96356.94;5113568;28;20044;-61
2022/08/31 07:28:35;;;;;;;14.85;5.75;;;;;;;32.98;35.16;96354.22;5113449;28;20069;-62
2022/08/31 07:31:04;;;;;;;14.25;6.10;;;;;;;33.04;34.20;96358.00;5113399;28;20089;-60
2022/08/31 07:33:37;;;;;;;10.48;5.93;;;;;;;32.97;34.92;96352.56;5113429;28;20062;-61
2022/08/31 07:36:09;;;;;;;15.15;6.10;;;;;;;32.93;34.58;96343.19;5113267;28;20052;-61
2022/08/31 07:44:08;;;;;;;15.38;5.60;;;;;;;32.96;34.73;96350.06;5113449;28;20067;-60
2022/08/31 07:46:35;;;;;;;10.10;5.22;;;;;;;33.05;34.94;96342.59;5113246;28;20615;-61
2022/08/31 07:49:07;;;;;;;8.63;5.28;;;;;;;33.06;33.68;96349.66;5113256;28;20054;-61
2022/08/31 07:51:36;;;;;;;9.65;5.63;;;;;;;32.94;34.13;96344.84;5113131;28;20047;-62
2022/08/31 07:54:05;;;;;;;12.55;5.95;;;;;;;33.17;34.28;96345.53;5114923;28;20048;-60
2022/08/31 07:56:32;;;;;;;12.43;5.80;;;;;;;33.05;33.74;96338.03;5117141;28;20572;-61
2022/08/31 07:58:59;;;;;;;18.70;6.20;;;;;;;33.02;34.36;96341.94;5117279;28;20506;-61
2022/08/31 08:01:29;;;;;;;13.15;6.32;;;;;;;32.96;34.86;96340.03;5117164;28;20052;-63
2022/08/31 08:03:58;;;;;;;13.55;5.75;;;;;;;33.29;35.58;96333.03;5117111;28;20104;-61
2022/08/31 08:06:27;;;;;;;15.52;5.72;;;;;;;33.02;34.46;96339.22;5117137;28;20053;-61
2022/08/31 08:09:02;;;;;;;9.65;5.60;;;;;;;33.11;33.19;96334.47;5117002;28;20055;-61
2022/08/31 08:11:31;;;;;;;9.63;5.68;;;;;;;32.94;33.29;96336.72;5116862;28;20079;-61
2022/08/31 08:13:59;;;;;;;17.85;5.50;;;;;;;32.71;32.69;96332.50;5116797;28;20105;-61
2022/08/31 08:16:26;;;;;;;11.43;5.70;;;;;;;32.18;34.17;96338.56;5116556;28;20129;-62
2022/08/31 08:18:53;;;;;;;12.38;5.80;;;;;;;31.94;36.36;96335.31;5116892;28;20499;-61
2022/08/31 08:21:20;;;;;;;13.27;6.00;;;;;;;31.72;36.63;96332.69;5116466;28;20058;-61
2022/08/31 08:23:47;;;;;;;12.32;5.60;;;;;;;31.96;36.62;96325.97;5116630;28;20043;-61
2022/08/31 08:26:16;;;;;;;11.98;5.90;;;;;;;32.30;35.17;96325.28;5116687;28;20043;-61
2022/08/31 08:28:43;;;;;;;14.25;5.28;;;;;;;32.28;36.82;96330.91;5116645;28;20043;-60
2022/08/31 08:31:14;;;;;;;9.02;5.20;;;;;;;32.14;35.05;96319.19;5116837;28;20130;-60
2022/08/31 08:33:42;;;;;;;22.13;6.28;;;;;;;31.97;34.75;96324.09;5116456;28;20450;-61
2022/08/31 08:36:09;;;;;;;15.05;5.53;;;;;;;31.51;35.35;96324.41;5116379;28;20105;-61
2022/08/31 08:38:42;;;;;;;14.20;5.55;;;;;;;31.41;35.75;96321.22;5116472;28;20447;-59
2022/08/31 08:41:14;;;;;;;13.23;5.47;;;;;;;31.55;36.83;96321.31;5116473;27;20051;-59
2022/08/31 08:43:45;;;;;;;13.93;5.72;;;;;;;31.81;36.55;96315.25;5116432;28;20096;-60
2022/08/31 08:46:15;;;;;;;11.60;4.68;;;;;;;31.87;32.06;96313.59;5116286;28;20044;-59
2022/08/31 08:48:44;;;;;;;8.63;5.10;;;;;;;31.20;33.74;96316.66;5116282;28;20602;-59
2022/08/31 08:51:17;;;;;;;11.70;5.38;;;;;;;31.06;33.98;96310.34;5116207;28;20055;-60
2022/08/31 08:53:50;;;;;;;14.63;5.95;;;;;;;31.21;34.64;96305.66;5116081;28;20485;-59
2022/08/31 08:56:19;;;;;;;13.80;4.95;;;;;;;31.33;34.63;96315.97;5115992;28;20168;-59
2022/08/31 08:58:48;;;;;;;13.52;5.13;;;;;;;31.07;33.63;96307.44;5116058;28;20047;-60
2022/08/31 09:01:24;;;;;;;11.98;4.82;;;;;;;31.05;31.86;96301.38;5115922;28;20048;-59
2022/08/31 09:04:04;;;;;;;20.50;5.07;;;;;;;30.96;31.05;96305.25;5115790;28;20054;-60
2022/08/31 09:06:40;;;;;;;12.57;5.28;;;;;;;30.74;32.01;96295.28;5115885;28;20048;-60
2022/08/31 09:09:25;;;;;;;16.48;4.70;;;;;;;30.82;33.30;96291.63;5115892;28;20050;-60
2022/08/31 09:12:06;;;;;;;13.52;4.75;;;;;;;30.84;32.91;96283.34;5115864;28;20497;-59
2022/08/31 09:14:50;;;;;;;14.98;4.57;;;;;;;31.12;33.32;96287.97;5115707;28;20043;-60
2022/08/31 09:17:34;;;;;;;15.98;4.80;;;;;;;31.35;33.16;96282.34;5115538;28;20058;-62
2022/08/31 09:20:04;;;;;;;18.77;5.18;;;;;;;31.47;33.21;96268.28;5115630;28;20104;-61
2022/08/31 09:22:34;;;;;;;13.98;4.80;;;;;;;31.71;31.48;96276.94;5115456;28;20074;-60
2022/08/31 09:25:02;;;;;;;15.13;5.28;;;;;;;31.85;32.67;96275.16;5115486;28;20047;-59
2022/08/31 09:27:45;;;;;;;16.20;4.65;;;;;;;31.38;31.93;96283.81;5115369;28;20048;-60
2022/08/31 09:30:31;;;;;;;15.73;4.70;;;;;;;31.15;31.24;96280.28;5115451;28;20059;-60
2022/08/31 09:32:59;;;;;;;11.88;4.55;;;;;;;30.92;32.00;96277.81;5115358;28;20058;-59
2022/08/31 09:35:39;;;;;;;12.63;4.63;;;;;;;30.92;32.23;96269.72;5115218;28;20054;-59
2022/08/31 09:38:10;;;;;;;15.27;4.82;;;;;;;30.85;33.52;96269.66;5115613;28;20429;-61
2022/08/31 09:40:42;;;;;;;16.85;5.10;;;;;;;30.98;33.25;96274.34;5115105;28;20052;-60
2022/08/31 09:43:12;;;;;;;12.35;4.40;;;;;;;31.02;32.45;96272.09;5115179;28;20039;-61
2022/08/31 09:45:58;;;;;;;18.00;4.80;;;;;;;30.79;32.66;96273.13;5115258;28;20118;-60
2022/08/31 09:48:50;;;;;;;14.85;4.25;;;;;;;30.82;33.20;96263.81;5114951;28;20047;-62
2022/08/31 09:51:22;;;;;;;12.20;4.18;;;;;;;30.81;31.66;96262.97;5114964;28;20043;-62
2022/08/31 09:56:53;;;;;;;21.85;5.35;;;;;;;31.01;32.48;96276.66;5114948;28;20696;-61
2022/08/31 09:59:36;;;;;;;11.13;4.50;;;;;;;31.09;31.73;96269.44;5114711;28;20109;-63
2022/08/31 10:02:10;;;;;;;11.07;4.00;;;;;;;30.73;31.86;96273.88;5115032;28;20134;-61
2022/08/31 10:04:49;;;;;;;10.50;4.72;;;;;;;30.70;31.91;96266.19;5114729;28;20040;-61
2022/08/31 10:07:30;;;;;;;11.40;4.50;;;;;;;30.74;34.29;96262.91;5114672;28;20039;-61
2022/08/31 10:09:59;;;;;;;;;;;;;;;30.87;33.35;96247.88;5115073;28;20550;-59
2022/08/31 10:12:38;;;;;;;11.45;5.80;;;;;;;31.06;35.87;96256.34;5114657;28;20269;-61
2022/08/31 10:15:12;;;;;;;17.88;5.43;;;;;;;31.33;34.95;96240.31;5114553;28;20122;-62
2022/08/31 10:17:46;;;;;;;12.98;5.32;;;;;;;31.32;33.49;96235.94;5113617;28;20051;-61
2022/08/31 10:20:19;;;;;;;17.88;5.55;;;;;;;31.21;34.24;96240.84;5114512;28;20544;-61
2022/08/31 10:22:52;;;;;;;17.50;5.43;;;;;;;31.28;35.23;96222.81;5114262;28;20066;-61
2022/08/31 10:25:27;;;;;;;15.80;5.93;;;;;;;31.52;35.69;96219.91;5114207;28;20385;-60
2022/08/31 10:28:00;;;;;;;23.58;5.90;;;;;;;31.58;35.26;96221.81;5114137;28;20055;-59
2022/08/31 10:30:35;;;;;;;18.85;5.60;;;;;;;31.58;33.32;96212.84;5114156;28;20047;-60
2022/08/31 10:33:13;;;;;;;16.52;5.30;;;;;;;31.18;32.65;96205.34;5114272;28;20047;-61
2022/08/31 10:35:52;;;;;;;18.52;5.50;;;;;;;31.33;33.89;96197.13;5114105;28;20132;-61
2022/08/31 10:38:26;;;;;;;14.82;5.47;;;;;;;31.37;34.19;96196.56;5113972;28;20085;-60
2022/08/31 10:41:03;;;;;;;15.75;5.63;;;;;;;31.27;34.21;96202.25;5114209;28;20465;-62
2022/08/31 10:43:37;;;;;;;18.27;5.47;;;;;;;31.08;35.23;96209.22;5113954;28;20051;-60
2022/08/31 10:46:05;;;;;;;11.52;5.30;;;;;;;30.87;33.63;96216.31;5114073;28;20116;-60
2022/08/31 10:48:38;;;;;;;14.20;5.70;;;;;;;30.70;34.37;96209.50;5113989;28;20047;-59
2022/08/31 10:51:19;;;;;;;10.85;5.47;;;;;;;30.49;35.67;96203.09;5114004;28;20052;-60
2022/08/31 10:54:00;;;;;;;10.60;5.43;;;;;;;30.21;36.84;96202.00;5114293;28;20089;-61
2022/08/31 10:56:36;;;;;;;17.27;5.13;;;;;;;30.25;36.33;96197.06;5113676;28;20043;-61
2022/08/31 10:59:13;;;;;;;13.88;5.53;;;;;;;30.16;36.67;96195.50;5113700;28;20051;-61
2022/08/31 11:01:51;;;;;;;18.20;5.50;;;;;;;30.17;36.60;96214.19;5113805;28;20050;-60
2022/08/31 11:04:43;;;;;;;16.45;5.40;;;;;;;30.06;36.64;96207.41;5113824;28;20039;-61
2022/08/31 11:07:23;;;;;;;15.95;5.97;;;;;;;30.19;37.47;96204.03;5113577;28;20048;-61
2022/08/31 11:10:00;;;;;;;15.38;6.20;;;;;;;30.16;38.26;96195.50;5113715;28;20100;-58
2022/08/31 11:12:41;;;;;;;12.57;6.05;;;;;;;29.57;40.67;96214.28;5113591;28;20123;-60
2022/08/31 11:15:43;;;;;;;11.98;6.40;;;;;;;28.48;43.80;96211.75;5113673;28;20091;-57
2022/08/31 11:18:44;;;;;;;20.60;6.55;;;;;;;27.79;44.78;96221.38;5113537;28;20461;-59
2022/08/31 11:21:44;;;;;;;11.98;6.22;;;;;;;27.32;46.51;96216.66;5113361;28;20047;-59
2022/08/31 11:24:49;;;;;;;17.05;6.53;;;;;;;27.06;46.35;96208.84;5113538;28;20416;-60
2022/08/31 11:27:23;;;;;;;9.32;5.82;;;;;;;26.86;45.47;96215.41;5066316;28;20044;-58
2022/08/31 11:29:56;;;;;;;12.32;5.30;;;;;;;26.81;44.92;96211.53;5117829;28;20052;-59
2022/08/31 11:32:28;;;;;;;11.05;5.75;;;;;;;26.72;47.14;96222.25;5117691;28;20043;-57
2022/08/31 11:34:59;;;;;;;10.48;5.53;;;;;;;26.05;48.69;96244.59;5117635;28;20416;-59
2022/08/31 11:37:53;;;;;;;14.93;5.75;;;;;;;24.93;55.09;96247.06;5117599;28;20055;-59
2022/08/31 11:41:12;;;;;;;14.63;7.53;;;;;;;23.04;60.69;96224.25;5117996;28;20130;-60
2022/08/31 11:43:50;;;;;;;17.27;7.32;;;;;;;22.44;60.77;96229.63;5117491;28;20127;-60
2022/08/31 11:47:01;;;;;;;16.92;8.55;;;;;;;22.34;63.22;96229.63;5117432;28;20048;-59
2022/08/31 11:49:42;;;;;;;23.80;8.30;;;;;;;22.20;65.58;96241.53;5117062;28;20127;-59
2022/08/31 11:52:29;;;;;;;19.15;10.07;;;;;;;22.22;68.80;96254.72;5117556;28;20090;-59
2022/08/31 11:55:06;;;;;;;25.75;10.15;;;;;;;22.41;70.90;96271.69;5114626;28;20481;-59